Time;durP1;ratioP1;P1;durP2;ratioP2;P2;SDS_P1;SDS_P2;PMS_P1;PMS_P2;Temp;Humidity;BMP_temperature;BMP_pressure;BME280_temperature;BME280_humidity;BME280_pressure;Samples;Min_cycle;Max_cycle;Signal;HPM_P1;HPM_P2
2022/07/12 00:01:04;;;;;;;0.40;0.40;;;16.20;99.90;;;;;;4431501;32;20061;-65
2022/07/12 00:03:30;;;;;;;0.30;0.30;;;16.20;99.90;;;;;;4431344;32;20061;-65
2022/07/12 00:05:56;;;;;;;0.55;0.40;;;16.10;99.90;;;;;;4431812;32;20057;-65
2022/07/12 00:08:23;;;;;;;0.20;0.20;;;16.10;99.90;;;;;;4431078;32;20128;-65
2022/07/12 00:10:48;;;;;;;0.40;0.40;;;16.20;99.90;;;;;;4444852;32;20056;-65
2022/07/12 00:13:15;;;;;;;0.20;0.20;;;16.30;99.90;;;;;;4443768;32;20089;-65
2022/07/12 00:15:40;;;;;;;0.20;0.20;;;16.30;99.90;;;;;;4443929;32;20427;-65
2022/07/12 00:18:06;;;;;;;0.20;0.20;;;16.20;99.90;;;;;;4430456;32;20135;-65
2022/07/12 00:20:31;;;;;;;1.60;1.20;;;16.10;99.90;;;;;;4426271;32;20453;-65
2022/07/12 00:22:57;;;;;;;0.30;0.30;;;16.00;99.90;;;;;;4393799;32;20668;-65
2022/07/12 00:25:22;;;;;;;0.28;0.28;;;16.00;99.90;;;;;;4419083;32;20077;-65
2022/07/12 00:27:48;;;;;;;0.20;0.20;;;16.10;99.90;;;;;;4430168;32;20070;-65
2022/07/12 00:30:13;;;;;;;0.40;0.40;;;16.20;99.90;;;;;;4429706;32;20398;-65
2022/07/12 00:32:38;;;;;;;0.30;0.30;;;16.30;99.90;;;;;;4418242;32;20086;-65
2022/07/12 00:35:05;;;;;;;0.50;0.50;;;16.20;99.90;;;;;;4431319;32;20053;-65
2022/07/12 00:37:32;;;;;;;0.40;0.40;;;16.10;99.90;;;;;;4431892;32;20069;-65
2022/07/12 00:39:57;;;;;;;1.27;0.60;;;16.00;99.90;;;;;;4417511;32;20061;-65
2022/07/12 00:42:24;;;;;;;3.20;0.40;;;16.10;99.90;;;;;;4418225;32;20509;-65
2022/07/12 00:44:50;;;;;;;0.20;0.20;;;16.10;99.90;;;;;;4422158;32;20129;-65
2022/07/12 00:47:37;;;;;;;0.20;0.20;;;16.10;99.90;;;;;;4445082;32;20077;-65
2022/07/12 00:50:06;;;;;;;22.37;2.37;;;16.10;99.90;;;;;;4431918;32;20065;-65
2022/07/12 00:52:32;;;;;;;0.40;0.40;;;16.00;99.90;;;;;;4397994;32;20529;-65
2022/07/12 00:54:57;;;;;;;0.25;0.25;;;15.90;99.90;;;;;;4419479;32;20054;-65
2022/07/12 00:57:23;;;;;;;0.40;0.40;;;15.80;99.90;;;;;;4431766;32;20085;-65
2022/07/12 00:59:49;;;;;;;1.73;0.25;;;15.70;99.90;;;;;;4431360;32;20060;-65
2022/07/12 01:02:15;;;;;;;0.32;0.32;;;15.70;99.90;;;;;;4430844;32;20522;-65
2022/07/12 01:04:43;;;;;;;0.30;0.30;;;15.80;99.90;;;;;;4431126;32;20126;-65
2022/07/12 01:07:08;;;;;;;0.37;0.37;;;16.00;99.90;;;;;;4431975;32;20062;-65
2022/07/12 01:09:34;;;;;;;0.35;0.35;;;15.80;99.90;;;;;;4431809;32;20082;-65
2022/07/12 01:11:59;;;;;;;0.28;0.28;;;15.60;99.90;;;;;;4430324;32;20066;-65
2022/07/12 01:14:25;;;;;;;0.20;0.20;;;15.50;99.90;;;;;;4434901;32;20061;-65
2022/07/12 01:16:51;;;;;;;0.35;0.35;;;15.50;99.90;;;;;;4433736;32;20112;-65
2022/07/12 01:19:20;;;;;;;0.30;0.30;;;15.50;99.90;;;;;;4437234;32;20130;-65
2022/07/12 01:21:49;;;;;;;0.30;0.30;;;15.60;99.90;;;;;;4418367;32;20077;-65
2022/07/12 01:24:15;;;;;;;0.40;0.40;;;15.70;99.90;;;;;;4413351;32;20406;-65
2022/07/12 01:26:41;;;;;;;0.20;0.20;;;15.70;99.90;;;;;;4430555;32;20124;-65
2022/07/12 01:29:08;;;;;;;0.20;0.20;;;15.60;99.90;;;;;;4431824;32;20078;-65
2022/07/12 01:31:36;;;;;;;0.20;0.20;;;15.60;99.90;;;;;;4415849;32;82777;-65
2022/07/12 01:34:03;;;;;;;0.30;0.30;;;15.60;99.90;;;;;;4431521;32;20066;-65
2022/07/12 01:36:29;;;;;;;1.20;0.80;;;15.40;99.90;;;;;;4416442;32;20057;-65
2022/07/12 01:38:54;;;;;;;0.40;0.40;;;15.30;99.90;;;;;;4430768;32;20156;-65
2022/07/12 01:41:21;;;;;;;0.43;0.40;;;15.20;99.90;;;;;;4429793;32;20066;-65
2022/07/12 01:43:47;;;;;;;0.20;0.20;;;15.20;99.90;;;;;;4432114;32;20061;-65
2022/07/12 01:46:12;;;;;;;0.62;0.50;;;15.20;99.90;;;;;;4445682;32;20077;-65
2022/07/12 01:48:38;;;;;;;0.25;0.25;;;15.10;99.90;;;;;;4434992;32;20590;-65
2022/07/12 01:51:04;;;;;;;0.25;0.25;;;15.20;99.90;;;;;;4423288;32;20371;-65
2022/07/12 01:53:30;;;;;;;0.20;0.20;;;15.10;99.90;;;;;;4409607;32;20348;-65
2022/07/12 01:55:55;;;;;;;0.20;0.20;;;14.90;99.90;;;;;;4436883;32;20064;-65
2022/07/12 01:58:21;;;;;;;0.40;0.40;;;15.00;99.90;;;;;;4444387;32;20077;-65
2022/07/12 02:00:51;;;;;;;0.47;0.47;;;15.20;99.90;;;;;;4445176;32;20120;-65
2022/07/12 02:03:17;;;;;;;0.25;0.25;;;15.20;99.90;;;;;;4446906;32;20085;-65
2022/07/12 02:05:43;;;;;;;0.30;0.30;;;15.00;99.90;;;;;;4446360;32;20157;-65
2022/07/12 02:08:08;;;;;;;0.45;0.45;;;15.00;99.90;;;;;;4445202;32;20100;-65
2022/07/12 02:10:34;;;;;;;0.40;0.40;;;15.00;99.90;;;;;;4435856;32;20128;-65
2022/07/12 02:13:03;;;;;;;0.30;0.30;;;14.80;99.90;;;;;;4431214;32;20474;-65
2022/07/12 02:15:28;;;;;;;0.40;0.40;;;14.80;99.90;;;;;;4430802;32;20070;-65
2022/07/12 02:17:54;;;;;;;5.10;1.65;;;14.90;99.90;;;;;;4429453;32;20061;-65
2022/07/12 02:20:19;;;;;;;0.30;0.30;;;14.90;99.90;;;;;;4430258;32;20517;-65
2022/07/12 02:22:45;;;;;;;0.30;0.30;;;14.90;99.90;;;;;;4410004;32;20057;-65
2022/07/12 02:25:10;;;;;;;0.35;0.35;;;14.90;99.90;;;;;;4418284;32;20065;-65
2022/07/12 02:27:37;;;;;;;0.37;0.37;;;14.90;99.90;;;;;;4430855;32;20065;-65
2022/07/12 02:30:03;;;;;;;0.40;0.40;;;14.90;99.90;;;;;;4430943;32;20057;-65
2022/07/12 02:32:29;;;;;;;0.30;0.30;;;14.70;99.90;;;;;;4429381;32;20154;-65
2022/07/12 02:34:54;;;;;;;1.20;0.37;;;14.70;99.90;;;;;;4430624;32;20061;-65
2022/07/12 02:37:20;;;;;;;0.20;0.20;;;14.70;99.90;;;;;;4430358;32;20069;-65
2022/07/12 02:39:45;;;;;;;0.30;0.30;;;14.60;99.90;;;;;;4435792;32;20099;-65
2022/07/12 02:42:11;;;;;;;0.40;0.40;;;14.60;99.90;;;;;;4446035;32;20081;-65
2022/07/12 02:44:36;;;;;;;0.30;0.30;;;14.60;99.90;;;;;;4445056;32;20061;-65
2022/07/12 02:47:02;;;;;;;0.45;0.30;;;14.50;99.90;;;;;;4445475;32;20115;-65
2022/07/12 02:49:28;;;;;;;0.20;0.20;;;14.50;99.90;;;;;;4441595;32;20439;-65
2022/07/12 02:51:53;;;;;;;0.20;0.20;;;14.50;99.90;;;;;;4416236;32;20469;-65
2022/07/12 02:54:18;;;;;;;0.47;0.47;;;14.60;99.90;;;;;;4410760;32;20077;-65
2022/07/12 02:56:44;;;;;;;1.55;0.65;;;14.60;99.90;;;;;;4428520;32;20065;-65
2022/07/12 02:59:09;;;;;;;0.20;0.20;;;14.60;99.90;;;;;;4430797;32;20112;-65
2022/07/12 03:01:35;;;;;;;0.30;0.30;;;14.60;99.90;;;;;;4430776;32;20090;-65
2022/07/12 03:04:01;;;;;;;0.40;0.40;;;14.60;99.90;;;;;;4430637;32;20069;-65
2022/07/12 03:06:26;;;;;;;0.47;0.45;;;14.60;99.90;;;;;;4428341;32;20500;-65
2022/07/12 03:08:52;;;;;;;0.35;0.30;;;14.60;99.90;;;;;;4429812;32;20097;-65
2022/07/12 03:11:17;;;;;;;0.30;0.30;;;14.50;99.90;;;;;;4429157;32;20069;-65
2022/07/12 03:13:42;;;;;;;0.30;0.30;;;14.40;99.90;;;;;;4428669;32;20066;-65
2022/07/12 03:16:08;;;;;;;0.35;0.35;;;14.40;99.90;;;;;;4430275;32;20115;-65
2022/07/12 03:18:34;;;;;;;0.30;0.30;;;14.40;99.90;;;;;;4428938;32;20079;-65
2022/07/12 03:21:00;;;;;;;0.10;0.10;;;14.50;99.90;;;;;;4424365;32;20554;-65
2022/07/12 03:23:25;;;;;;;0.30;0.30;;;14.40;99.90;;;;;;4406735;32;20081;-65
2022/07/12 03:25:50;;;;;;;0.62;0.45;;;14.30;99.90;;;;;;4424120;32;20053;-65
2022/07/12 03:28:16;;;;;;;0.30;0.30;;;14.30;99.90;;;;;;4429326;32;20057;-65
2022/07/12 03:30:42;;;;;;;0.37;0.37;;;14.30;99.90;;;;;;4430186;32;20054;-65
2022/07/12 03:33:07;;;;;;;0.30;0.30;;;14.20;99.90;;;;;;4429140;32;20086;-65
2022/07/12 03:35:33;;;;;;;0.45;0.40;;;14.20;99.90;;;;;;4429683;32;20419;-65
2022/07/12 03:37:58;;;;;;;0.20;0.20;;;14.20;99.90;;;;;;4430202;32;20070;-65
2022/07/12 03:40:24;;;;;;;0.20;0.20;;;14.20;99.90;;;;;;4439704;32;20061;-65
2022/07/12 03:42:51;;;;;;;0.20;0.20;;;14.20;99.90;;;;;;4443282;32;20137;-65
2022/07/12 03:45:17;;;;;;;0.30;0.30;;;14.20;99.90;;;;;;4444375;32;20555;-65
2022/07/12 03:47:42;;;;;;;0.40;0.40;;;14.20;99.90;;;;;;4443572;32;20066;-65
2022/07/12 03:50:11;;;;;;;0.30;0.30;;;14.20;99.90;;;;;;4435117;32;20062;-65
2022/07/12 03:52:37;;;;;;;0.20;0.20;;;14.20;99.90;;;;;;4395576;32;20061;-65
2022/07/12 03:55:03;;;;;;;0.25;0.25;;;14.20;99.90;;;;;;4417847;32;20074;-65
2022/07/12 03:57:29;;;;;;;1.48;0.47;;;14.30;99.90;;;;;;4428941;32;20078;-65
2022/07/12 03:59:55;;;;;;;0.30;0.30;;;14.30;99.90;;;;;;4428060;32;20497;-65
2022/07/12 04:02:21;;;;;;;1.10;0.93;;;14.30;99.90;;;;;;4428811;32;20065;-65
2022/07/12 04:04:47;;;;;;;0.20;0.20;;;14.30;99.90;;;;;;4430149;32;20112;-65
2022/07/12 04:07:13;;;;;;;2.90;0.40;;;14.40;99.90;;;;;;4429146;32;20069;-65
2022/07/12 04:09:38;;;;;;;0.22;0.22;;;14.40;99.90;;;;;;4429625;32;20070;-65
2022/07/12 04:12:04;;;;;;;0.30;0.30;;;14.40;99.90;;;;;;4430018;32;20082;-65
2022/07/12 04:14:30;;;;;;;0.30;0.30;;;14.50;99.90;;;;;;4429819;32;20060;-65
2022/07/12 04:16:56;;;;;;;0.30;0.30;;;14.50;99.90;;;;;;4441900;32;20069;-65
2022/07/12 04:19:25;;;;;;;0.20;0.20;;;14.50;99.90;;;;;;4438333;32;20057;-65
2022/07/12 04:21:50;;;;;;;0.25;0.25;;;14.50;99.90;;;;;;4416737;32;20191;-65
2022/07/12 04:24:16;;;;;;;7.45;0.52;;;14.60;99.90;;;;;;4414503;32;20180;-65
2022/07/12 04:26:41;;;;;;;0.40;0.40;;;14.70;99.90;;;;;;4435219;32;20073;-65
2022/07/12 04:29:07;;;;;;;0.50;0.50;;;14.70;99.90;;;;;;4428621;32;20538;-65
2022/07/12 04:31:32;;;;;;;0.20;0.20;;;14.70;99.90;;;;;;4429532;32;20137;-65
2022/07/12 04:33:57;;;;;;;0.20;0.20;;;14.80;99.90;;;;;;4430158;32;20084;-65
2022/07/12 04:36:23;;;;;;;0.35;0.35;;;14.90;99.90;;;;;;4444128;32;20109;-65
2022/07/12 04:38:49;;;;;;;0.30;0.30;;;14.90;99.90;;;;;;4437271;32;20065;-65
2022/07/12 04:41:15;;;;;;;0.20;0.20;;;14.90;99.90;;;;;;4443552;32;20061;-65
2022/07/12 04:43:40;;;;;;;2.37;0.90;;;15.00;99.90;;;;;;4432793;32;20115;-65
2022/07/12 04:46:08;;;;;;;0.30;0.30;;;15.00;99.90;;;;;;4444604;32;20060;-65
2022/07/12 04:48:34;;;;;;;0.20;0.20;;;15.10;99.90;;;;;;4443088;32;20078;-65
2022/07/12 04:51:00;;;;;;;0.32;0.32;;;15.20;99.90;;;;;;4435582;32;20495;-65
2022/07/12 04:53:25;;;;;;;0.20;0.20;;;15.30;99.90;;;;;;4406926;32;20077;-65
2022/07/12 04:55:51;;;;;;;0.20;0.20;;;15.30;99.90;;;;;;4423068;32;20062;-65
2022/07/12 04:58:16;;;;;;;0.50;0.50;;;15.30;99.90;;;;;;4430043;32;20073;-65
2022/07/12 05:00:43;;;;;;;0.20;0.20;;;15.50;99.90;;;;;;4433882;32;20073;-64
2022/07/12 05:03:08;;;;;;;0.28;0.28;;;15.60;99.90;;;;;;4423805;32;20560;-65
2022/07/12 05:05:34;;;;;;;0.60;0.60;;;15.60;99.90;;;;;;4423091;32;20120;-65
2022/07/12 05:07:59;;;;;;;0.30;0.30;;;15.70;99.90;;;;;;4425621;32;20085;-65
2022/07/12 05:10:25;;;;;;;0.30;0.30;;;15.70;99.90;;;;;;4429680;32;20541;-64
2022/07/12 05:12:50;;;;;;;0.22;0.22;;;15.80;99.90;;;;;;4424157;32;20423;-65
2022/07/12 05:15:16;;;;;;;1.02;0.68;;;15.90;99.90;;;;;;4421478;32;20389;-65
2022/07/12 05:17:41;;;;;;;0.30;0.30;;;16.00;99.90;;;;;;4425455;32;20065;-65
2022/07/12 05:20:07;;;;;;;0.20;0.20;;;16.10;99.90;;;;;;4438217;32;20056;-65
2022/07/12 05:22:33;;;;;;;15.27;3.83;;;16.10;99.90;;;;;;4420423;32;20072;-65
2022/07/12 05:24:58;;;;;;;2.83;1.10;;;16.10;99.90;;;;;;4429445;32;20073;-65
2022/07/12 05:27:24;;;;;;;0.37;0.37;;;16.20;99.90;;;;;;4446227;32;20411;-65
2022/07/12 05:29:49;;;;;;;0.25;0.22;;;16.20;99.90;;;;;;4446669;32;20565;-65
2022/07/12 05:32:15;;;;;;;0.30;0.30;;;16.20;99.90;;;;;;4437773;32;20073;-65
2022/07/12 05:34:40;;;;;;;1.08;0.62;;;16.30;99.90;;;;;;4439845;32;20069;-65
2022/07/12 05:37:06;;;;;;;0.30;0.30;;;16.30;99.90;;;;;;4440816;32;20057;-65
2022/07/12 05:39:31;;;;;;;0.43;0.35;;;16.40;99.90;;;;;;4431479;32;20434;-65
2022/07/12 05:41:57;;;;;;;0.20;0.20;;;16.50;99.90;;;;;;4429252;32;20062;-65
2022/07/12 05:44:22;;;;;;;0.30;0.30;;;16.60;99.90;;;;;;4424246;32;20101;-65
2022/07/12 05:46:48;;;;;;;0.25;0.25;;;16.60;99.90;;;;;;4441219;32;20058;-65
2022/07/12 05:49:14;;;;;;;0.30;0.30;;;16.70;99.90;;;;;;4445960;32;20119;-65
2022/07/12 05:53:39;;;;;;;0.30;0.30;;;16.80;99.90;;;;;;4420996;32;20763;-66
2022/07/12 05:54:25;;;;;;;0.30;0.30;;;16.90;99.90;;;;;;4426822;32;20065;-66
2022/07/12 05:56:50;;;;;;;2.85;0.52;;;16.90;99.90;;;;;;4446254;32;20073;-66
2022/07/12 05:59:17;;;;;;;0.20;0.20;;;17.00;99.90;;;;;;4447119;32;20073;-64
2022/07/12 06:01:43;;;;;;;0.20;0.20;;;17.00;99.90;;;;;;4436847;32;20065;-64
2022/07/12 06:04:08;;;;;;;0.20;0.20;;;17.10;99.90;;;;;;4437711;32;20053;-64
2022/07/12 06:06:34;;;;;;;0.20;0.20;;;17.20;99.90;;;;;;4444352;32;20077;-64
2022/07/12 06:09:00;;;;;;;2.08;0.85;;;17.30;99.90;;;;;;4427723;32;20069;-66
2022/07/12 06:11:25;;;;;;;0.20;0.20;;;17.40;99.90;;;;;;4428253;32;20452;-65
2022/07/12 06:13:51;;;;;;;0.57;0.30;;;17.50;99.90;;;;;;4420705;32;20107;-65
2022/07/12 06:16:16;;;;;;;0.30;0.30;;;17.50;99.90;;;;;;4424927;32;20076;-65
2022/07/12 06:18:42;;;;;;;0.20;0.20;;;17.70;99.90;;;;;;4430229;32;20062;-65
2022/07/12 06:21:08;;;;;;;0.30;0.30;;;17.70;99.90;;;;;;4433222;32;20060;-65
2022/07/12 06:23:33;;;;;;;0.20;0.20;;;17.80;99.90;;;;;;4424954;32;20072;-65
2022/07/12 06:25:58;;;;;;;1.25;0.30;;;17.90;99.90;;;;;;4440475;32;20486;-65
2022/07/12 06:28:24;;;;;;;0.20;0.20;;;18.00;99.90;;;;;;4444575;32;20124;-65
2022/07/12 06:30:49;;;;;;;0.30;0.30;;;18.00;99.90;;;;;;4441921;32;20065;-65
2022/07/12 06:33:15;;;;;;;0.43;0.43;;;18.10;99.90;;;;;;4435169;32;20430;-65
2022/07/12 06:35:40;;;;;;;0.40;0.40;;;18.20;99.90;;;;;;4443769;32;20073;-65
2022/07/12 06:38:06;;;;;;;1.48;0.37;;;18.30;99.90;;;;;;4432741;32;20504;-65
2022/07/12 06:40:31;;;;;;;0.20;0.20;;;18.40;99.90;;;;;;4429365;32;20081;-65
2022/07/12 06:42:57;;;;;;;0.50;0.50;;;18.50;99.90;;;;;;4424572;32;20070;-65
2022/07/12 06:45:23;;;;;;;4.05;0.90;;;18.50;99.90;;;;;;4429071;32;20077;-65
2022/07/12 06:47:48;;;;;;;0.35;0.35;;;18.50;99.90;;;;;;4444989;32;20082;-65
2022/07/12 06:50:14;;;;;;;0.20;0.20;;;18.60;99.90;;;;;;4445160;32;20126;-65
2022/07/12 06:52:39;;;;;;;0.30;0.30;;;18.70;99.90;;;;;;4410800;32;20086;-65
2022/07/12 06:55:05;;;;;;;0.20;0.20;;;18.70;99.90;;;;;;4416266;32;20081;-65
2022/07/12 06:57:31;;;;;;;0.30;0.30;;;18.80;99.90;;;;;;4429704;32;20069;-65
2022/07/12 06:59:56;;;;;;;0.30;0.30;;;18.90;99.90;;;;;;4428359;32;20065;-65
2022/07/12 07:02:22;;;;;;;2.85;0.30;;;18.90;99.90;;;;;;4420344;32;20438;-65
2022/07/12 07:04:48;;;;;;;0.30;0.30;;;18.90;99.90;;;;;;4424140;32;20073;-65
2022/07/12 07:07:13;;;;;;;0.20;0.20;;;19.00;99.90;;;;;;4438118;32;20065;-65
2022/07/12 07:09:39;;;;;;;0.47;0.47;;;19.10;99.90;;;;;;4444811;32;20470;-65
2022/07/12 07:12:05;;;;;;;0.20;0.20;;;19.20;99.90;;;;;;4441501;32;20065;-65
2022/07/12 07:14:30;;;;;;;0.25;0.25;;;19.30;99.90;;;;;;4436038;32;20120;-65
2022/07/12 07:16:56;;;;;;;0.40;0.40;;;19.40;99.90;;;;;;4440999;32;20122;-65
2022/07/12 07:19:24;;;;;;;0.20;0.20;;;19.50;99.90;;;;;;4445983;32;20057;-65
2022/07/12 07:21:50;;;;;;;0.28;0.28;;;19.60;99.80;;;;;;4431147;32;20057;-65
2022/07/12 07:24:16;;;;;;;0.20;0.20;;;19.70;99.50;;;;;;4427346;32;20066;-65
2022/07/12 07:26:41;;;;;;;0.20;0.20;;;19.80;99.80;;;;;;4444452;32;20111;-65
2022/07/12 07:31:08;;;;;;;0.32;0.32;;;19.90;99.60;;;;;;4443969;32;20094;-65
2022/07/12 07:31:52;;;;;;;0.20;0.20;;;20.10;99.80;;;;;;4433577;32;20171;-65
2022/07/12 07:34:17;;;;;;;0.50;0.50;;;20.10;99.20;;;;;;4437295;32;20553;-65
2022/07/12 07:36:43;;;;;;;0.20;0.20;;;20.20;99.20;;;;;;4438544;32;20069;-65
2022/07/12 07:39:09;;;;;;;0.32;0.32;;;20.40;99.20;;;;;;4429808;32;20121;-65
2022/07/12 07:41:34;;;;;;;0.20;0.20;;;20.50;98.90;;;;;;4415242;32;20053;-65
2022/07/12 07:44:00;;;;;;;0.32;0.32;;;20.60;98.80;;;;;;4419863;32;20082;-64
2022/07/12 07:46:26;;;;;;;7.10;0.45;;;20.80;98.30;;;;;;4437353;32;20116;-64
2022/07/12 07:48:51;;;;;;;0.40;0.40;;;20.90;98.10;;;;;;4445475;32;20126;-64
2022/07/12 07:51:17;;;;;;;0.20;0.20;;;21.00;98.00;;;;;;4430835;32;20422;-64
2022/07/12 07:53:42;;;;;;;0.20;0.20;;;21.10;97.80;;;;;;4409909;32;20112;-65
2022/07/12 07:56:07;;;;;;;0.30;0.30;;;21.30;97.10;;;;;;4441056;32;20069;-65
2022/07/12 07:58:33;;;;;;;0.30;0.30;;;21.40;97.00;;;;;;4445663;32;20077;-65
2022/07/12 08:00:59;;;;;;;37.50;1.17;;;21.50;96.70;;;;;;4438328;32;20065;-65
2022/07/12 08:03:25;;;;;;;0.22;0.22;;;21.70;96.10;;;;;;4432649;32;20081;-65
2022/07/12 08:05:50;;;;;;;1.05;0.60;;;21.70;96.20;;;;;;4442689;32;20415;-65
2022/07/12 08:08:17;;;;;;;0.68;0.68;;;21.90;96.10;;;;;;4444639;32;20065;-65
2022/07/12 08:10:43;;;;;;;0.20;0.20;;;22.00;96.20;;;;;;4444780;32;20120;-65
2022/07/12 08:13:08;;;;;;;0.60;0.50;;;22.00;94.80;;;;;;4435236;32;20109;-64
2022/07/12 08:15:35;;;;;;;3.25;0.40;;;22.10;95.20;;;;;;4433279;32;20466;-65
2022/07/12 08:18:01;;;;;;;0.20;0.20;;;22.20;94.90;;;;;;4443350;32;20082;-65
2022/07/12 08:20:26;;;;;;;0.10;0.10;;;22.30;94.80;;;;;;4441387;32;20073;-65
2022/07/12 08:22:52;;;;;;;0.20;0.20;;;22.40;94.90;;;;;;4421342;32;20130;-65
2022/07/12 08:25:17;;;;;;;0.20;0.20;;;22.60;94.80;;;;;;4419248;32;20057;-65
2022/07/12 08:27:43;;;;;;;0.10;0.10;;;22.70;94.10;;;;;;4429704;32;20070;-65
2022/07/12 08:30:09;;;;;;;0.10;0.10;;;22.60;93.80;;;;;;4426914;32;20054;-65
2022/07/12 08:32:35;;;;;;;0.10;0.10;;;22.60;93.40;;;;;;4417603;32;20109;-65
2022/07/12 08:35:00;;;;;;;0.20;0.20;;;22.60;93.30;;;;;;4424055;32;20533;-65
2022/07/12 08:37:26;;;;;;;0.20;0.20;;;22.60;93.30;;;;;;4439935;32;20072;-64
2022/07/12 08:39:51;;;;;;;0.20;0.20;;;22.70;93.20;;;;;;4443815;32;20408;-65
2022/07/12 08:42:19;;;;;;;0.10;0.10;;;22.80;93.40;;;;;;4440518;32;20119;-65
2022/07/12 08:44:53;;;;;;;0.10;0.10;;;22.80;92.80;;;;;;4427868;32;20062;-65
2022/07/12 08:47:18;;;;;;;0.20;0.20;;;23.00;93.00;;;;;;4425830;32;20411;-65
2022/07/12 08:50:12;;;;;;;0.20;0.20;;;23.10;93.00;;;;;;4429510;32;20054;-65
2022/07/12 08:52:41;;;;;;;0.13;0.13;;;22.90;92.20;;;;;;4411772;32;20151;-64
2022/07/12 08:55:25;;;;;;;0.17;0.17;;;22.80;92.10;;;;;;4427633;32;20078;-65
2022/07/12 08:57:54;;;;;;;0.10;0.10;;;22.90;92.50;;;;;;4448009;32;20061;-65
2022/07/12 09:00:20;;;;;;;0.20;0.20;;;23.10;92.30;;;;;;4444774;32;20065;-65
2022/07/12 09:02:49;;;;;;;0.20;0.20;;;23.30;92.40;;;;;;4435427;32;20116;-65
2022/07/12 09:05:16;;;;;;;0.30;0.30;;;23.30;91.70;;;;;;4442048;32;20386;-65
2022/07/12 09:07:41;;;;;;;0.20;0.20;;;23.30;91.90;;;;;;4434418;32;20775;-65
2022/07/12 09:10:09;;;;;;;0.17;0.17;;;23.30;92.20;;;;;;4430130;32;20053;-65
2022/07/12 09:12:36;;;;;;;0.10;0.10;;;23.40;92.20;;;;;;4425160;32;20381;-65
2022/07/12 09:15:20;;;;;;;0.10;0.10;;;23.50;91.80;;;;;;4420290;32;20082;-65
2022/07/12 09:18:04;;;;;;;0.28;0.28;;;23.50;91.80;;;;;;4429609;32;20185;-65
2022/07/12 09:20:32;;;;;;;0.10;0.10;;;23.60;91.70;;;;;;4428613;32;20069;-65
2022/07/12 09:23:04;;;;;;;0.20;0.20;;;23.60;91.50;;;;;;4408920;32;20151;-65
2022/07/12 09:25:32;;;;;;;0.20;0.20;;;23.60;90.90;;;;;;4437335;32;20054;-65
2022/07/12 09:27:58;;;;;;;0.17;0.17;;;23.50;91.40;;;;;;4433669;32;20056;-65
2022/07/12 09:30:25;;;;;;;0.25;0.25;;;23.50;91.40;;;;;;4442772;32;20468;-65
2022/07/12 09:36:12;;;;;;;0.30;0.30;;;23.80;91.30;;;;;;4431393;32;20546;-65
2022/07/12 09:38:26;;;;;;;0.20;0.20;;;23.90;91.30;;;;;;4429500;32;20063;-65
2022/07/12 09:40:54;;;;;;;0.20;0.20;;;24.00;91.20;;;;;;4429364;32;20524;-65
2022/07/12 09:43:19;;;;;;;0.20;0.20;;;24.00;90.50;;;;;;4407769;32;20367;-65
2022/07/12 09:45:47;;;;;;;0.20;0.20;;;24.10;90.40;;;;;;4430234;32;20092;-65
2022/07/12 09:48:13;;;;;;;0.17;0.17;;;24.10;89.40;;;;;;4446823;32;20172;-65
2022/07/12 09:50:39;;;;;;;0.30;0.30;;;24.10;90.00;;;;;;4444137;32;20515;-65
2022/07/12 09:53:05;;;;;;;0.30;0.30;;;24.20;90.40;;;;;;4420733;32;20074;-65
2022/07/12 09:55:33;;;;;;;0.28;0.28;;;24.10;87.80;;;;;;4433145;32;20069;-65
2022/07/12 09:58:02;;;;;;;0.28;0.28;;;24.20;89.50;;;;;;4447277;32;20061;-65
2022/07/12 10:00:29;;;;;;;0.47;0.35;;;24.50;88.60;;;;;;4443436;32;20080;-65
2022/07/12 10:02:55;;;;;;;0.10;0.10;;;24.70;88.30;;;;;;4432604;32;20049;-65
2022/07/12 10:05:24;;;;;;;0.10;0.10;;;24.80;89.10;;;;;;4441343;32;20053;-65
2022/07/12 10:07:51;;;;;;;0.10;0.10;;;24.80;89.00;;;;;;4430720;32;20604;-65
2022/07/12 10:10:17;;;;;;;0.75;0.47;;;24.80;87.40;;;;;;4429068;32;20058;-65
2022/07/12 10:12:43;;;;;;;0.13;0.13;;;25.00;87.50;;;;;;4423883;32;20164;-65
2022/07/12 10:15:16;;;;;;;0.37;0.13;;;25.20;85.80;;;;;;4417328;32;20126;-65
2022/07/12 10:17:50;;;;;;;0.20;0.20;;;25.40;85.60;;;;;;4428207;32;20561;-65
2022/07/12 10:20:18;;;;;;;0.10;0.10;;;25.30;86.30;;;;;;4429514;32;20070;-65
2022/07/12 10:22:45;;;;;;;0.10;0.10;;;25.40;86.20;;;;;;4409828;32;20061;-65
2022/07/12 10:25:29;;;;;;;0.25;0.25;;;25.70;84.10;;;;;;4419597;32;20525;-65
2022/07/12 10:27:55;;;;;;;0.10;0.10;;;25.90;85.40;;;;;;4445728;32;20064;-65
2022/07/12 10:30:22;;;;;;;0.17;0.17;;;26.30;84.40;;;;;;4442873;32;20081;-65
2022/07/12 10:32:50;;;;;;;0.10;0.10;;;26.20;82.50;;;;;;4427657;32;20219;-65
2022/07/12 10:35:21;;;;;;;0.65;0.25;;;25.80;82.20;;;;;;4439642;32;20070;-65
2022/07/12 10:38:15;;;;;;;0.10;0.10;;;25.80;83.50;;;;;;4432693;32;20068;-65
2022/07/12 10:40:45;;;;;;;0.10;0.10;;;26.20;83.00;;;;;;4444269;32;20061;-65
2022/07/12 10:43:13;;;;;;;0.20;0.20;;;26.30;82.00;;;;;;4435714;32;20164;-64
2022/07/12 10:45:41;;;;;;;0.28;0.28;;;26.50;81.30;;;;;;4435149;32;20279;-64
2022/07/12 10:48:09;;;;;;;0.20;0.20;;;26.50;81.30;;;;;;4443611;32;20107;-64
2022/07/12 10:50:45;;;;;;;0.13;0.13;;;26.30;84.10;;;;;;4443610;32;20456;-64
2022/07/12 10:53:30;;;;;;;0.13;0.13;;;26.20;83.70;;;;;;4420591;32;20054;-64
2022/07/12 10:56:17;;;;;;;0.10;0.10;;;26.40;82.10;;;;;;4437910;32;20101;-64
2022/07/12 10:58:46;;;;;;;0.20;0.20;;;26.70;82.50;;;;;;4445644;32;20150;-65
2022/07/12 11:01:15;;;;;;;0.13;0.13;;;27.10;81.80;;;;;;4436798;32;20273;-65
2022/07/12 11:03:44;;;;;;;0.13;0.13;;;27.20;79.40;;;;;;4433366;32;20123;-65
2022/07/12 11:06:13;;;;;;;0.10;0.10;;;27.10;80.60;;;;;;4444349;32;20119;-65
2022/07/12 11:09:00;;;;;;;0.10;0.10;;;27.00;79.10;;;;;;4431989;32;20076;-65
2022/07/12 11:11:28;;;;;;;0.10;0.10;;;27.30;79.80;;;;;;4443498;32;20078;-65
2022/07/12 11:13:55;;;;;;;4.03;0.20;;;27.80;78.90;;;;;;4432803;32;20110;-65
2022/07/12 11:16:21;;;;;;;0.10;0.10;;;28.20;76.20;;;;;;4436426;32;20529;-65
2022/07/12 11:18:46;;;;;;;0.10;0.10;;;28.00;77.90;;;;;;4430825;32;20057;-65
2022/07/12 11:21:12;;;;;;;0.20;0.20;;;27.20;78.30;;;;;;4424545;32;20060;-65
2022/07/12 11:23:40;;;;;;;0.32;0.32;;;26.90;79.30;;;;;;4424225;32;20127;-65
2022/07/12 11:26:07;;;;;;;0.30;0.30;;;27.40;78.70;;;;;;4440333;32;20078;-65
2022/07/12 11:28:33;;;;;;;0.10;0.10;;;27.80;77.80;;;;;;4444294;32;20057;-65
2022/07/12 11:31:04;;;;;;;0.00;0.00;;;28.00;79.20;;;;;;4435671;32;20505;-64
2022/07/12 11:33:32;;;;;;;0.10;0.10;;;28.30;78.50;;;;;;4429563;32;20060;-63
2022/07/12 11:35:59;;;;;;;0.00;0.00;;;28.70;76.90;;;;;;4442184;32;20065;-65
2022/07/12 11:38:25;;;;;;;2.35;0.52;;;28.60;75.00;;;;;;4444898;32;20072;-66
2022/07/12 11:40:56;;;;;;;0.10;0.10;;;28.10;76.10;;;;;;4430656;32;20120;-65
2022/07/12 11:43:22;;;;;;;0.00;0.00;;;28.00;75.00;;;;;;4435057;32;20057;-64
2022/07/12 11:45:48;;;;;;;0.00;0.00;;;28.10;74.60;;;;;;4420774;32;20135;-64
2022/07/12 11:48:14;;;;;;;1.62;0.03;;;28.30;74.90;;;;;;4429036;32;20065;-64
2022/07/12 11:50:42;;;;;;;0.20;0.20;;;28.50;74.60;;;;;;4426495;32;20454;-65
2022/07/12 11:53:18;;;;;;;0.10;0.08;;;28.90;73.30;;;;;;4407573;32;20131;-64
2022/07/12 11:55:47;;;;;;;0.00;0.00;;;28.70;74.40;;;;;;4424598;32;20061;-64
2022/07/12 11:58:13;;;;;;;0.05;0.05;;;28.50;74.10;;;;;;4427471;32;20066;-64
2022/07/12 12:00:39;;;;;;;0.00;0.00;;;27.80;74.90;;;;;;4422780;32;20053;-65
2022/07/12 12:03:05;;;;;;;0.10;0.10;;;27.40;76.20;;;;;;4428544;32;20077;-64
2022/07/12 12:05:30;;;;;;;0.00;0.00;;;27.70;75.60;;;;;;4441172;32;20169;-64
2022/07/12 12:07:56;;;;;;;0.00;0.00;;;28.40;74.30;;;;;;4428699;32;20082;-65
2022/07/12 12:10:22;;;;;;;0.00;0.00;;;28.90;71.60;;;;;;4428305;32;20074;-65
2022/07/12 12:12:51;;;;;;;0.20;0.20;;;28.80;72.00;;;;;;4407753;32;20062;-64
2022/07/12 12:15:20;;;;;;;0.00;0.00;;;29.00;72.00;;;;;;4414830;32;20485;-64
2022/07/12 12:18:06;;;;;;;0.00;0.00;;;28.60;71.90;;;;;;4426427;32;20096;-64
2022/07/12 12:20:34;;;;;;;0.08;0.08;;;28.00;74.40;;;;;;4415975;32;20073;-64
2022/07/12 12:23:01;;;;;;;0.00;0.00;;;27.80;74.60;;;;;;4407782;32;20086;-66
2022/07/12 12:25:29;;;;;;;0.00;0.00;;;28.10;75.40;;;;;;4419342;32;20058;-64
2022/07/12 12:27:56;;;;;;;0.20;0.20;;;29.30;73.40;;;;;;4427248;32;20402;-65
2022/07/12 12:30:23;;;;;;;0.00;0.00;;;29.90;70.60;;;;;;4426383;32;20086;-65
2022/07/12 12:32:54;;;;;;;0.00;0.00;;;30.50;69.10;;;;;;4430144;32;20139;-65
2022/07/12 12:35:22;;;;;;;0.00;0.00;;;30.70;67.60;;;;;;4438217;32;20061;-65
2022/07/12 12:37:51;;;;;;;0.00;0.00;;;30.00;69.20;;;;;;4442559;32;20482;-65
2022/07/12 12:40:26;;;;;;;0.00;0.00;;;29.50;70.10;;;;;;4430843;32;20057;-65
2022/07/12 12:42:52;;;;;;;0.00;0.00;;;28.90;71.00;;;;;;4424060;32;20089;-65
2022/07/12 12:45:24;;;;;;;0.00;0.00;;;29.20;72.00;;;;;;4422674;32;20120;-65
2022/07/12 12:48:00;;;;;;;0.15;0.15;;;29.70;71.10;;;;;;4427351;32;20111;-65